CheckWX is a tool to help pilots better visualize weather data.  It is not intended as a substitute for an official pre-flight weather briefing.

07:56:50 UTC

KOZW METAR
Livingston County Spencer J Hardy Airport
Howell, Michigan, USA
Current

22 mins ago

KOZW 230735Z AUTO 20005KT 10SM CLR 01/M08 A3007 RMK AO2 T00081077
Observed
Feb-23 @ 07:35 UTC
Wind
  • 200° at 5 KTS
Visibility
10 SM
Flight Rules
VFR
Cloud Levels
  • Clear skies
Temperature
C / 34°F
Dewpoint
-8°C / 18°F
Humidity
51%
Altimeter
30.07" Hg
Pressure
1018.32 hPa
Previous

42 mins ago

KOZW 230715Z AUTO 20004KT 10SM CLR 01/M08 A3007 RMK AO2 T00091080
Observed
Feb-23 @ 07:15 UTC
Wind
  • 200° at 4 KTS
Visibility
10 SM
Flight Rules
VFR
Cloud Levels
  • Clear skies
Temperature
C / 34°F
Dewpoint
-8°C / 18°F
Humidity
51%
Altimeter
30.07" Hg
Pressure
1018.32 hPa
Previous

1 hour ago

KOZW 230655Z AUTO 20004KT 10SM CLR 01/M08 A3008 RMK AO2 T00101078
Observed
Feb-23 @ 06:55 UTC
Wind
  • 200° at 4 KTS
Visibility
10 SM
Flight Rules
VFR
Cloud Levels
  • Clear skies
Temperature
C / 34°F
Dewpoint
-8°C / 18°F
Humidity
51%
Altimeter
30.08" Hg
Pressure
1018.62 hPa